Terminal Aerodrome Forecast
Issued by NWS Charleston, WV

Current Version | Previous Version | Graphics & Text | Print | Product List | Glossary On
Versions: 1 2 3 4 5 6 7 8 9 10 11 12 13 14 15 16 17 18 19 20 21 22 23 24 25
319
FTUS41 KRLX 130307 AAA
TAFHTS
TAF AMD
KHTS 130307Z 1303/1324 29010KT P6SM BKN050
     FM130700 27007KT P6SM SCT100 SCT250
     FM131200 25003KT P6SM SCT250
     FM131500 23005KT P6SM SCT050=

USA.gov is the U.S. government's official web portal to all federal, state and local government web resources and services.